sensor_id;sensor_type;location;lat;lon;timestamp;temperature;humidity
6260;DHT22;3163;51.516;4.000;2023-02-21T00:01:55;10.80;99.90
6260;DHT22;3163;51.516;4.000;2023-02-21T00:04:40;10.70;99.90
6260;DHT22;3163;51.516;4.000;2023-02-21T00:07:24;10.70;99.90
6260;DHT22;3163;51.516;4.000;2023-02-21T00:10:11;10.70;99.90
6260;DHT22;3163;51.516;4.000;2023-02-21T00:12:55;10.70;99.90
6260;DHT22;3163;51.516;4.000;2023-02-21T00:15:40;10.70;99.90
6260;DHT22;3163;51.516;4.000;2023-02-21T00:18:23;10.70;99.90
6260;DHT22;3163;51.516;4.000;2023-02-21T00:21:08;10.70;99.90
6260;DHT22;3163;51.516;4.000;2023-02-21T00:23:52;10.70;99.90
6260;DHT22;3163;51.516;4.000;2023-02-21T00:26:36;10.70;99.90
6260;DHT22;3163;51.516;4.000;2023-02-21T00:29:20;10.70;99.90
6260;DHT22;3163;51.516;4.000;2023-02-21T00:32:04;10.70;99.90
6260;DHT22;3163;51.516;4.000;2023-02-21T00:34:49;10.80;99.90
6260;DHT22;3163;51.516;4.000;2023-02-21T00:37:33;10.80;99.90
6260;DHT22;3163;51.516;4.000;2023-02-21T00:40:18;10.80;99.90
6260;DHT22;3163;51.516;4.000;2023-02-21T00:43:03;10.80;99.90
6260;DHT22;3163;51.516;4.000;2023-02-21T00:45:47;10.80;99.90
6260;DHT22;3163;51.516;4.000;2023-02-21T00:48:31;10.70;99.90
6260;DHT22;3163;51.516;4.000;2023-02-21T00:51:15;10.70;99.90
6260;DHT22;3163;51.516;4.000;2023-02-21T00:54:00;10.70;99.90
6260;DHT22;3163;51.516;4.000;2023-02-21T00:56:44;10.70;99.90
6260;DHT22;3163;51.516;4.000;2023-02-21T00:59:28;10.70;99.90
6260;DHT22;3163;51.516;4.000;2023-02-21T01:02:12;10.60;99.90
6260;DHT22;3163;51.516;4.000;2023-02-21T01:04:56;10.70;99.90
6260;DHT22;3163;51.516;4.000;2023-02-21T01:07:40;10.70;99.90
6260;DHT22;3163;51.516;4.000;2023-02-21T01:10:25;10.70;99.90
6260;DHT22;3163;51.516;4.000;2023-02-21T01:13:09;10.70;99.90
6260;DHT22;3163;51.516;4.000;2023-02-21T01:15:53;10.70;99.90
6260;DHT22;3163;51.516;4.000;2023-02-21T01:18:37;10.80;99.90
6260;DHT22;3163;51.516;4.000;2023-02-21T01:21:21;10.80;99.90
6260;DHT22;3163;51.516;4.000;2023-02-21T01:24:07;10.80;99.90
6260;DHT22;3163;51.516;4.000;2023-02-21T01:26:52;10.70;99.90
6260;DHT22;3163;51.516;4.000;2023-02-21T01:29:37;10.70;99.90
6260;DHT22;3163;51.516;4.000;2023-02-21T01:32:21;10.70;99.90
6260;DHT22;3163;51.516;4.000;2023-02-21T01:35:05;10.70;99.90
6260;DHT22;3163;51.516;4.000;2023-02-21T01:37:49;10.70;99.90
6260;DHT22;3163;51.516;4.000;2023-02-21T01:40:34;10.60;99.90
6260;DHT22;3163;51.516;4.000;2023-02-21T01:43:22;10.60;99.90
6260;DHT22;3163;51.516;4.000;2023-02-21T01:46:16;10.70;99.90
6260;DHT22;3163;51.516;4.000;2023-02-21T01:49:08;10.60;99.90
6260;DHT22;3163;51.516;4.000;2023-02-21T01:51:52;10.70;99.90
6260;DHT22;3163;51.516;4.000;2023-02-21T01:54:41;10.60;99.90
6260;DHT22;3163;51.516;4.000;2023-02-21T01:57:27;10.60;99.90
6260;DHT22;3163;51.516;4.000;2023-02-21T02:00:12;10.70;99.90
6260;DHT22;3163;51.516;4.000;2023-02-21T02:03:01;10.70;99.90
6260;DHT22;3163;51.516;4.000;2023-02-21T02:05:50;10.70;99.90
6260;DHT22;3163;51.516;4.000;2023-02-21T02:08:36;10.70;99.90
6260;DHT22;3163;51.516;4.000;2023-02-21T02:39:48;10.60;99.90
6260;DHT22;3163;51.516;4.000;2023-02-21T02:42:43;10.60;99.90
6260;DHT22;3163;51.516;4.000;2023-02-21T02:48:16;10.70;99.90
6260;DHT22;3163;51.516;4.000;2023-02-21T02:50:47;10.70;99.90
6260;DHT22;3163;51.516;4.000;2023-02-21T02:53:17;10.70;99.90
6260;DHT22;3163;51.516;4.000;2023-02-21T02:55:51;10.70;99.90
6260;DHT22;3163;51.516;4.000;2023-02-21T02:58:19;10.70;99.90
6260;DHT22;3163;51.516;4.000;2023-02-21T03:00:55;10.60;99.90
6260;DHT22;3163;51.516;4.000;2023-02-21T03:06:25;10.60;99.90
6260;DHT22;3163;51.516;4.000;2023-02-21T03:09:17;10.60;99.90
6260;DHT22;3163;51.516;4.000;2023-02-21T03:12:18;10.60;99.90
6260;DHT22;3163;51.516;4.000;2023-02-21T03:14:53;10.60;99.90
6260;DHT22;3163;51.516;4.000;2023-02-21T03:17:25;10.60;99.90
6260;DHT22;3163;51.516;4.000;2023-02-21T03:19:52;10.60;99.90
6260;DHT22;3163;51.516;4.000;2023-02-21T03:22:21;10.60;99.90
6260;DHT22;3163;51.516;4.000;2023-02-21T03:24:48;10.60;99.90
6260;DHT22;3163;51.516;4.000;2023-02-21T03:27:16;10.60;99.90
6260;DHT22;3163;51.516;4.000;2023-02-21T03:29:43;10.60;99.90
6260;DHT22;3163;51.516;4.000;2023-02-21T03:32:24;10.60;99.90
6260;DHT22;3163;51.516;4.000;2023-02-21T03:34:51;10.70;99.90
6260;DHT22;3163;51.516;4.000;2023-02-21T03:37:39;10.70;99.90
6260;DHT22;3163;51.516;4.000;2023-02-21T03:40:08;10.70;99.90
6260;DHT22;3163;51.516;4.000;2023-02-21T03:42:35;10.70;99.90
6260;DHT22;3163;51.516;4.000;2023-02-21T03:45:00;10.60;99.90
6260;DHT22;3163;51.516;4.000;2023-02-21T03:47:26;10.60;99.90
6260;DHT22;3163;51.516;4.000;2023-02-21T03:49:51;10.60;99.90
6260;DHT22;3163;51.516;4.000;2023-02-21T03:52:17;10.60;99.90
6260;DHT22;3163;51.516;4.000;2023-02-21T03:54:43;10.60;99.90
6260;DHT22;3163;51.516;4.000;2023-02-21T03:57:08;10.60;99.90
6260;DHT22;3163;51.516;4.000;2023-02-21T03:59:34;10.60;99.90
6260;DHT22;3163;51.516;4.000;2023-02-21T04:02:00;10.50;99.90
6260;DHT22;3163;51.516;4.000;2023-02-21T04:04:25;10.60;99.90
6260;DHT22;3163;51.516;4.000;2023-02-21T04:06:51;10.60;99.90
6260;DHT22;3163;51.516;4.000;2023-02-21T04:09:17;10.50;99.90
6260;DHT22;3163;51.516;4.000;2023-02-21T04:11:45;10.50;99.90
6260;DHT22;3163;51.516;4.000;2023-02-21T04:14:12;10.60;99.90
6260;DHT22;3163;51.516;4.000;2023-02-21T04:16:38;10.50;99.90
6260;DHT22;3163;51.516;4.000;2023-02-21T04:19:04;10.60;99.90
6260;DHT22;3163;51.516;4.000;2023-02-21T04:21:29;10.60;99.90
6260;DHT22;3163;51.516;4.000;2023-02-21T04:23:55;10.60;99.90
6260;DHT22;3163;51.516;4.000;2023-02-21T04:26:21;10.60;99.90
6260;DHT22;3163;51.516;4.000;2023-02-21T04:28:48;10.60;99.90
6260;DHT22;3163;51.516;4.000;2023-02-21T04:31:15;10.60;99.90
6260;DHT22;3163;51.516;4.000;2023-02-21T04:33:42;10.60;99.90
6260;DHT22;3163;51.516;4.000;2023-02-21T04:36:08;10.60;99.90
6260;DHT22;3163;51.516;4.000;2023-02-21T04:38:34;10.60;99.90
6260;DHT22;3163;51.516;4.000;2023-02-21T04:41:02;10.60;99.90
6260;DHT22;3163;51.516;4.000;2023-02-21T04:43:28;10.50;99.90
6260;DHT22;3163;51.516;4.000;2023-02-21T04:45:54;10.50;99.90
6260;DHT22;3163;51.516;4.000;2023-02-21T04:48:19;10.50;99.90
6260;DHT22;3163;51.516;4.000;2023-02-21T04:50:45;10.50;99.90
6260;DHT22;3163;51.516;4.000;2023-02-21T04:53:11;10.60;99.90
6260;DHT22;3163;51.516;4.000;2023-02-21T04:55:37;10.50;99.90
6260;DHT22;3163;51.516;4.000;2023-02-21T04:58:02;10.50;99.90
6260;DHT22;3163;51.516;4.000;2023-02-21T05:00:28;10.50;99.90
6260;DHT22;3163;51.516;4.000;2023-02-21T05:02:54;10.60;99.90
6260;DHT22;3163;51.516;4.000;2023-02-21T05:05:19;10.60;99.90
6260;DHT22;3163;51.516;4.000;2023-02-21T05:07:45;10.50;99.90
6260;DHT22;3163;51.516;4.000;2023-02-21T05:10:11;10.60;99.90
6260;DHT22;3163;51.516;4.000;2023-02-21T05:12:37;10.60;99.90
6260;DHT22;3163;51.516;4.000;2023-02-21T05:15:04;10.50;99.90
6260;DHT22;3163;51.516;4.000;2023-02-21T05:17:30;10.50;99.90
6260;DHT22;3163;51.516;4.000;2023-02-21T05:19:56;10.60;99.90
6260;DHT22;3163;51.516;4.000;2023-02-21T05:22:21;10.50;99.90
6260;DHT22;3163;51.516;4.000;2023-02-21T05:24:47;10.50;99.90
6260;DHT22;3163;51.516;4.000;2023-02-21T05:27:15;10.50;99.90
6260;DHT22;3163;51.516;4.000;2023-02-21T05:29:45;10.50;99.90
6260;DHT22;3163;51.516;4.000;2023-02-21T05:32:11;10.50;99.90
6260;DHT22;3163;51.516;4.000;2023-02-21T05:34:36;10.50;99.90
6260;DHT22;3163;51.516;4.000;2023-02-21T05:37:02;10.50;99.90
6260;DHT22;3163;51.516;4.000;2023-02-21T05:39:27;10.50;99.90
6260;DHT22;3163;51.516;4.000;2023-02-21T05:41:53;10.50;99.90
6260;DHT22;3163;51.516;4.000;2023-02-21T05:44:18;10.50;99.90
6260;DHT22;3163;51.516;4.000;2023-02-21T05:46:44;10.60;99.90
6260;DHT22;3163;51.516;4.000;2023-02-21T05:49:10;10.60;99.90
6260;DHT22;3163;51.516;4.000;2023-02-21T05:51:39;10.60;99.90
6260;DHT22;3163;51.516;4.000;2023-02-21T05:54:07;10.60;99.90
6260;DHT22;3163;51.516;4.000;2023-02-21T05:56:40;10.60;99.90
6260;DHT22;3163;51.516;4.000;2023-02-21T05:59:07;10.60;99.90
6260;DHT22;3163;51.516;4.000;2023-02-21T06:01:33;10.60;99.90
6260;DHT22;3163;51.516;4.000;2023-02-21T06:03:59;10.50;99.90
6260;DHT22;3163;51.516;4.000;2023-02-21T06:06:25;10.50;99.90
6260;DHT22;3163;51.516;4.000;2023-02-21T06:08:50;10.50;99.90
6260;DHT22;3163;51.516;4.000;2023-02-21T06:11:25;10.50;99.90
6260;DHT22;3163;51.516;4.000;2023-02-21T06:13:54;10.50;99.90
6260;DHT22;3163;51.516;4.000;2023-02-21T06:16:21;10.50;99.90
6260;DHT22;3163;51.516;4.000;2023-02-21T06:18:51;10.50;99.90
6260;DHT22;3163;51.516;4.000;2023-02-21T06:21:18;10.50;99.90
6260;DHT22;3163;51.516;4.000;2023-02-21T06:23:44;10.50;99.90
6260;DHT22;3163;51.516;4.000;2023-02-21T06:26:10;10.50;99.90
6260;DHT22;3163;51.516;4.000;2023-02-21T06:28:36;10.40;99.90
6260;DHT22;3163;51.516;4.000;2023-02-21T06:31:03;10.50;99.90
6260;DHT22;3163;51.516;4.000;2023-02-21T06:33:29;10.50;99.90
6260;DHT22;3163;51.516;4.000;2023-02-21T06:35:55;10.60;99.90
6260;DHT22;3163;51.516;4.000;2023-02-21T06:38:20;10.60;99.90
6260;DHT22;3163;51.516;4.000;2023-02-21T06:40:46;10.50;99.90
6260;DHT22;3163;51.516;4.000;2023-02-21T06:43:13;10.50;99.90
6260;DHT22;3163;51.516;4.000;2023-02-21T06:45:39;10.50;99.90
6260;DHT22;3163;51.516;4.000;2023-02-21T06:48:04;10.50;99.90
6260;DHT22;3163;51.516;4.000;2023-02-21T06:50:31;10.50;99.90
6260;DHT22;3163;51.516;4.000;2023-02-21T06:52:58;10.50;99.90
6260;DHT22;3163;51.516;4.000;2023-02-21T06:55:24;10.50;99.90
6260;DHT22;3163;51.516;4.000;2023-02-21T06:57:50;10.50;99.90
6260;DHT22;3163;51.516;4.000;2023-02-21T07:00:16;10.50;99.90
6260;DHT22;3163;51.516;4.000;2023-02-21T07:02:42;10.50;99.90
6260;DHT22;3163;51.516;4.000;2023-02-21T07:05:08;10.40;99.90
6260;DHT22;3163;51.516;4.000;2023-02-21T07:07:33;10.40;99.90
6260;DHT22;3163;51.516;4.000;2023-02-21T07:09:59;10.50;99.90
6260;DHT22;3163;51.516;4.000;2023-02-21T07:12:25;10.40;99.90
6260;DHT22;3163;51.516;4.000;2023-02-21T07:14:52;10.40;99.90
6260;DHT22;3163;51.516;4.000;2023-02-21T07:17:18;10.40;99.90
6260;DHT22;3163;51.516;4.000;2023-02-21T07:19:43;10.50;99.90
6260;DHT22;3163;51.516;4.000;2023-02-21T07:22:09;10.50;99.90
6260;DHT22;3163;51.516;4.000;2023-02-21T07:24:35;10.50;99.90
6260;DHT22;3163;51.516;4.000;2023-02-21T07:27:00;10.50;99.90
6260;DHT22;3163;51.516;4.000;2023-02-21T07:29:26;10.60;99.90
6260;DHT22;3163;51.516;4.000;2023-02-21T07:31:52;10.50;99.90
6260;DHT22;3163;51.516;4.000;2023-02-21T07:34:17;10.60;99.90
6260;DHT22;3163;51.516;4.000;2023-02-21T07:36:44;10.50;99.90
6260;DHT22;3163;51.516;4.000;2023-02-21T07:39:10;10.50;99.90
6260;DHT22;3163;51.516;4.000;2023-02-21T07:41:36;10.50;99.90
6260;DHT22;3163;51.516;4.000;2023-02-21T07:44:02;10.70;99.90
6260;DHT22;3163;51.516;4.000;2023-02-21T07:46:28;10.60;99.90
6260;DHT22;3163;51.516;4.000;2023-02-21T07:48:54;10.50;99.90
6260;DHT22;3163;51.516;4.000;2023-02-21T07:51:19;10.60;99.90
6260;DHT22;3163;51.516;4.000;2023-02-21T07:53:45;10.60;99.90
6260;DHT22;3163;51.516;4.000;2023-02-21T07:56:11;10.70;99.90
6260;DHT22;3163;51.516;4.000;2023-02-21T07:58:36;10.70;99.90
6260;DHT22;3163;51.516;4.000;2023-02-21T08:01:06;10.70;99.90
6260;DHT22;3163;51.516;4.000;2023-02-21T08:03:32;10.70;99.90
6260;DHT22;3163;51.516;4.000;2023-02-21T08:05:59;10.80;99.90
6260;DHT22;3163;51.516;4.000;2023-02-21T08:08:25;10.70;99.90
6260;DHT22;3163;51.516;4.000;2023-02-21T08:10:51;10.80;99.90
6260;DHT22;3163;51.516;4.000;2023-02-21T08:13:16;10.90;99.90
6260;DHT22;3163;51.516;4.000;2023-02-21T08:15:42;10.90;99.90
6260;DHT22;3163;51.516;4.000;2023-02-21T08:18:26;10.90;99.90
6260;DHT22;3163;51.516;4.000;2023-02-21T08:20:55;10.90;99.90
6260;DHT22;3163;51.516;4.000;2023-02-21T08:23:23;11.00;99.90
6260;DHT22;3163;51.516;4.000;2023-02-21T08:25:49;11.00;99.90
6260;DHT22;3163;51.516;4.000;2023-02-21T08:28:15;11.00;99.90
6260;DHT22;3163;51.516;4.000;2023-02-21T08:30:41;11.00;99.90
6260;DHT22;3163;51.516;4.000;2023-02-21T08:33:07;10.90;99.90
6260;DHT22;3163;51.516;4.000;2023-02-21T08:35:33;11.00;99.90
6260;DHT22;3163;51.516;4.000;2023-02-21T08:37:59;11.00;99.90
6260;DHT22;3163;51.516;4.000;2023-02-21T08:40:29;11.10;99.90
6260;DHT22;3163;51.516;4.000;2023-02-21T08:42:56;11.20;99.90
6260;DHT22;3163;51.516;4.000;2023-02-21T08:45:24;11.30;99.90
6260;DHT22;3163;51.516;4.000;2023-02-21T08:47:50;11.20;99.90
6260;DHT22;3163;51.516;4.000;2023-02-21T08:50:18;11.20;99.90
6260;DHT22;3163;51.516;4.000;2023-02-21T08:52:48;11.30;99.90
6260;DHT22;3163;51.516;4.000;2023-02-21T08:55:14;11.30;99.90
6260;DHT22;3163;51.516;4.000;2023-02-21T08:57:40;11.30;99.90
6260;DHT22;3163;51.516;4.000;2023-02-21T09:00:06;11.30;99.90
6260;DHT22;3163;51.516;4.000;2023-02-21T09:02:36;11.30;99.90
6260;DHT22;3163;51.516;4.000;2023-02-21T09:05:14;11.30;99.90
6260;DHT22;3163;51.516;4.000;2023-02-21T09:07:41;11.20;99.90
6260;DHT22;3163;51.516;4.000;2023-02-21T09:10:07;11.30;99.90
6260;DHT22;3163;51.516;4.000;2023-02-21T09:12:35;11.40;99.90
6260;DHT22;3163;51.516;4.000;2023-02-21T09:15:01;11.50;99.90
6260;DHT22;3163;51.516;4.000;2023-02-21T09:17:27;11.40;99.90
6260;DHT22;3163;51.516;4.000;2023-02-21T09:19:52;11.30;99.90
6260;DHT22;3163;51.516;4.000;2023-02-21T09:22:18;11.40;99.90
6260;DHT22;3163;51.516;4.000;2023-02-21T09:24:44;11.40;99.90
6260;DHT22;3163;51.516;4.000;2023-02-21T09:27:09;11.50;99.90
6260;DHT22;3163;51.516;4.000;2023-02-21T09:29:35;11.40;99.90
6260;DHT22;3163;51.516;4.000;2023-02-21T09:32:02;11.40;99.90
6260;DHT22;3163;51.516;4.000;2023-02-21T09:34:28;11.50;99.90
6260;DHT22;3163;51.516;4.000;2023-02-21T09:36:54;11.50;99.90
6260;DHT22;3163;51.516;4.000;2023-02-21T09:39:21;11.50;99.90
6260;DHT22;3163;51.516;4.000;2023-02-21T09:41:47;11.50;99.90
6260;DHT22;3163;51.516;4.000;2023-02-21T09:44:17;11.50;99.90
6260;DHT22;3163;51.516;4.000;2023-02-21T09:46:54;11.50;99.90
6260;DHT22;3163;51.516;4.000;2023-02-21T09:49:31;11.40;99.90
6260;DHT22;3163;51.516;4.000;2023-02-21T09:51:59;11.50;99.90
6260;DHT22;3163;51.516;4.000;2023-02-21T09:54:34;11.60;99.90
6260;DHT22;3163;51.516;4.000;2023-02-21T09:57:03;11.60;99.90
6260;DHT22;3163;51.516;4.000;2023-02-21T09:59:29;11.60;99.90
6260;DHT22;3163;51.516;4.000;2023-02-21T10:04:40;11.60;99.90
6260;DHT22;3163;51.516;4.000;2023-02-21T10:07:17;11.60;99.90
6260;DHT22;3163;51.516;4.000;2023-02-21T10:10:04;11.60;99.90
6260;DHT22;3163;51.516;4.000;2023-02-21T10:20:57;11.70;99.90
6260;DHT22;3163;51.516;4.000;2023-02-21T10:23:43;11.70;99.90
6260;DHT22;3163;51.516;4.000;2023-02-21T10:26:17;11.60;99.90
6260;DHT22;3163;51.516;4.000;2023-02-21T10:28:44;11.70;99.90
6260;DHT22;3163;51.516;4.000;2023-02-21T10:31:15;11.80;99.90
6260;DHT22;3163;51.516;4.000;2023-02-21T10:33:43;11.80;99.90
6260;DHT22;3163;51.516;4.000;2023-02-21T10:36:16;11.80;99.90
6260;DHT22;3163;51.516;4.000;2023-02-21T10:39:31;11.80;99.90
6260;DHT22;3163;51.516;4.000;2023-02-21T10:41:35;11.80;99.90
6260;DHT22;3163;51.516;4.000;2023-02-21T10:46:46;11.80;99.90
6260;DHT22;3163;51.516;4.000;2023-02-21T10:49:33;11.80;99.90
6260;DHT22;3163;51.516;4.000;2023-02-21T10:52:12;11.80;99.90
6260;DHT22;3163;51.516;4.000;2023-02-21T10:54:39;11.80;99.90
6260;DHT22;3163;51.516;4.000;2023-02-21T10:57:09;11.80;99.90
6260;DHT22;3163;51.516;4.000;2023-02-21T10:59:40;11.80;99.90
6260;DHT22;3163;51.516;4.000;2023-02-21T11:02:33;11.80;99.90
6260;DHT22;3163;51.516;4.000;2023-02-21T11:07:37;11.70;99.90
6260;DHT22;3163;51.516;4.000;2023-02-21T11:10:15;11.70;99.90
6260;DHT22;3163;51.516;4.000;2023-02-21T11:13:12;11.80;99.90
6260;DHT22;3163;51.516;4.000;2023-02-21T11:15:39;11.80;99.90
6260;DHT22;3163;51.516;4.000;2023-02-21T11:18:16;11.80;99.90
6260;DHT22;3163;51.516;4.000;2023-02-21T11:20:43;11.80;99.90
6260;DHT22;3163;51.516;4.000;2023-02-21T11:23:24;11.80;99.90
6260;DHT22;3163;51.516;4.000;2023-02-21T11:26:04;11.80;99.90
6260;DHT22;3163;51.516;4.000;2023-02-21T11:28:39;11.90;99.90
6260;DHT22;3163;51.516;4.000;2023-02-21T11:31:27;11.80;99.90
6260;DHT22;3163;51.516;4.000;2023-02-21T11:33:57;11.80;99.90
6260;DHT22;3163;51.516;4.000;2023-02-21T11:36:30;11.80;99.90
6260;DHT22;3163;51.516;4.000;2023-02-21T11:39:21;11.90;99.90
6260;DHT22;3163;51.516;4.000;2023-02-21T11:41:55;11.90;99.90
6260;DHT22;3163;51.516;4.000;2023-02-21T11:47:00;11.90;99.90
6260;DHT22;3163;51.516;4.000;2023-02-21T11:52:19;11.90;99.90
6260;DHT22;3163;51.516;4.000;2023-02-21T11:54:45;11.90;99.90
6260;DHT22;3163;51.516;4.000;2023-02-21T11:59:51;11.90;99.90
6260;DHT22;3163;51.516;4.000;2023-02-21T12:02:27;11.90;99.90
6260;DHT22;3163;51.516;4.000;2023-02-21T12:07:53;11.90;99.90
6260;DHT22;3163;51.516;4.000;2023-02-21T12:13:02;12.00;99.90
6260;DHT22;3163;51.516;4.000;2023-02-21T12:26:53;11.90;99.90
6260;DHT22;3163;51.516;4.000;2023-02-21T12:38:21;11.90;99.90
6260;DHT22;3163;51.516;4.000;2023-02-21T12:43:26;11.90;99.90
6260;DHT22;3163;51.516;4.000;2023-02-21T12:46:15;12.00;99.90
6260;DHT22;3163;51.516;4.000;2023-02-21T12:51:41;12.00;99.90
6260;DHT22;3163;51.516;4.000;2023-02-21T12:54:16;12.00;99.90
6260;DHT22;3163;51.516;4.000;2023-02-21T12:59:20;12.00;99.90
6260;DHT22;3163;51.516;4.000;2023-02-21T13:01:52;12.00;99.90
6260;DHT22;3163;51.516;4.000;2023-02-21T13:09:38;12.00;99.90
6260;DHT22;3163;51.516;4.000;2023-02-21T13:12:18;12.00;99.90
6260;DHT22;3163;51.516;4.000;2023-02-21T13:14:52;11.90;99.90
6260;DHT22;3163;51.516;4.000;2023-02-21T13:17:20;12.00;99.90
6260;DHT22;3163;51.516;4.000;2023-02-21T13:19:58;11.90;99.90
6260;DHT22;3163;51.516;4.000;2023-02-21T13:28:20;12.00;99.90
6260;DHT22;3163;51.516;4.000;2023-02-21T13:30:51;12.00;99.90
6260;DHT22;3163;51.516;4.000;2023-02-21T13:33:40;12.00;99.90
6260;DHT22;3163;51.516;4.000;2023-02-21T13:36:29;12.00;99.90
6260;DHT22;3163;51.516;4.000;2023-02-21T13:41:28;12.00;99.90
6260;DHT22;3163;51.516;4.000;2023-02-21T13:43:55;12.00;99.90
6260;DHT22;3163;51.516;4.000;2023-02-21T13:58:30;11.80;99.90
6260;DHT22;3163;51.516;4.000;2023-02-21T14:08:37;12.00;99.90
6260;DHT22;3163;51.516;4.000;2023-02-21T14:13:51;11.90;99.90
6260;DHT22;3163;51.516;4.000;2023-02-21T14:19:10;11.90;99.90
6260;DHT22;3163;51.516;4.000;2023-02-21T14:21:42;12.00;99.90
6260;DHT22;3163;51.516;4.000;2023-02-21T14:26:50;11.90;99.90
6260;DHT22;3163;51.516;4.000;2023-02-21T14:40:39;12.10;99.90
6260;DHT22;3163;51.516;4.000;2023-02-21T14:43:31;12.10;99.90
6260;DHT22;3163;51.516;4.000;2023-02-21T14:46:30;12.00;99.90
6260;DHT22;3163;51.516;4.000;2023-02-21T15:03:20;11.90;99.90
6260;DHT22;3163;51.516;4.000;2023-02-21T15:08:21;11.90;99.90
6260;DHT22;3163;51.516;4.000;2023-02-21T15:10:53;11.90;99.90
6260;DHT22;3163;51.516;4.000;2023-02-21T15:13:28;12.00;99.90
6260;DHT22;3163;51.516;4.000;2023-02-21T15:16:14;12.00;99.90
6260;DHT22;3163;51.516;4.000;2023-02-21T15:18:57;12.00;99.90
6260;DHT22;3163;51.516;4.000;2023-02-21T15:21:24;11.90;99.90
6260;DHT22;3163;51.516;4.000;2023-02-21T15:24:05;11.90;99.90
6260;DHT22;3163;51.516;4.000;2023-02-21T15:26:37;11.90;99.90
6260;DHT22;3163;51.516;4.000;2023-02-21T15:29:22;11.90;99.90
6260;DHT22;3163;51.516;4.000;2023-02-21T15:31:51;11.80;99.90
6260;DHT22;3163;51.516;4.000;2023-02-21T15:34:24;11.80;99.90
6260;DHT22;3163;51.516;4.000;2023-02-21T15:36:58;11.80;99.90
6260;DHT22;3163;51.516;4.000;2023-02-21T15:39:36;11.70;99.90
6260;DHT22;3163;51.516;4.000;2023-02-21T15:42:06;11.50;99.90
6260;DHT22;3163;51.516;4.000;2023-02-21T15:44:49;11.40;99.90
6260;DHT22;3163;51.516;4.000;2023-02-21T15:47:18;11.70;99.90
6260;DHT22;3163;51.516;4.000;2023-02-21T15:52:45;11.70;99.90
6260;DHT22;3163;51.516;4.000;2023-02-21T16:06:09;11.80;99.90
6260;DHT22;3163;51.516;4.000;2023-02-21T16:08:38;11.60;99.90
6260;DHT22;3163;51.516;4.000;2023-02-21T16:11:05;11.50;99.90
6260;DHT22;3163;51.516;4.000;2023-02-21T16:13:38;11.60;99.90
6260;DHT22;3163;51.516;4.000;2023-02-21T16:16:05;11.80;99.90
6260;DHT22;3163;51.516;4.000;2023-02-21T16:18:33;11.70;99.90
6260;DHT22;3163;51.516;4.000;2023-02-21T16:21:07;11.70;99.90
6260;DHT22;3163;51.516;4.000;2023-02-21T16:23:40;11.70;99.90
6260;DHT22;3163;51.516;4.000;2023-02-21T16:28:40;11.60;99.90
6260;DHT22;3163;51.516;4.000;2023-02-21T16:31:07;11.70;99.90
6260;DHT22;3163;51.516;4.000;2023-02-21T16:33:34;11.60;99.90
6260;DHT22;3163;51.516;4.000;2023-02-21T16:36:05;11.80;99.90
6260;DHT22;3163;51.516;4.000;2023-02-21T16:38:31;11.70;99.90
6260;DHT22;3163;51.516;4.000;2023-02-21T16:40:57;11.60;99.90
6260;DHT22;3163;51.516;4.000;2023-02-21T16:43:25;11.70;99.90
6260;DHT22;3163;51.516;4.000;2023-02-21T16:45:56;11.50;99.90
6260;DHT22;3163;51.516;4.000;2023-02-21T16:48:25;11.70;99.90
6260;DHT22;3163;51.516;4.000;2023-02-21T16:50:53;11.80;99.90
6260;DHT22;3163;51.516;4.000;2023-02-21T16:53:20;11.20;99.90
6260;DHT22;3163;51.516;4.000;2023-02-21T16:55:48;10.90;99.90
6260;DHT22;3163;51.516;4.000;2023-02-21T16:58:29;11.20;99.90
6260;DHT22;3163;51.516;4.000;2023-02-21T17:01:02;11.20;99.90
6260;DHT22;3163;51.516;4.000;2023-02-21T17:03:29;11.50;99.90
6260;DHT22;3163;51.516;4.000;2023-02-21T17:05:56;11.50;99.90
6260;DHT22;3163;51.516;4.000;2023-02-21T17:08:22;11.60;99.90
6260;DHT22;3163;51.516;4.000;2023-02-21T17:10:49;11.50;99.90
6260;DHT22;3163;51.516;4.000;2023-02-21T17:13:15;11.50;99.90
6260;DHT22;3163;51.516;4.000;2023-02-21T17:15:40;11.50;99.90
6260;DHT22;3163;51.516;4.000;2023-02-21T17:18:06;11.40;99.90
6260;DHT22;3163;51.516;4.000;2023-02-21T17:20:32;11.50;99.90
6260;DHT22;3163;51.516;4.000;2023-02-21T17:22:57;11.50;99.90
6260;DHT22;3163;51.516;4.000;2023-02-21T17:25:24;11.50;99.90
6260;DHT22;3163;51.516;4.000;2023-02-21T17:27:51;11.50;99.90
6260;DHT22;3163;51.516;4.000;2023-02-21T17:30:19;11.40;99.90
6260;DHT22;3163;51.516;4.000;2023-02-21T17:32:46;11.30;99.90
6260;DHT22;3163;51.516;4.000;2023-02-21T17:35:16;10.90;99.90
6260;DHT22;3163;51.516;4.000;2023-02-21T17:37:44;11.00;99.90
6260;DHT22;3163;51.516;4.000;2023-02-21T17:40:12;11.00;99.90
6260;DHT22;3163;51.516;4.000;2023-02-21T17:42:38;11.00;99.90
6260;DHT22;3163;51.516;4.000;2023-02-21T17:45:04;10.80;99.90
6260;DHT22;3163;51.516;4.000;2023-02-21T17:47:30;10.80;99.90
6260;DHT22;3163;51.516;4.000;2023-02-21T17:49:56;10.40;99.90
6260;DHT22;3163;51.516;4.000;2023-02-21T17:52:25;10.00;99.90
6260;DHT22;3163;51.516;4.000;2023-02-21T17:54:50;10.20;99.90
6260;DHT22;3163;51.516;4.000;2023-02-21T17:57:16;10.30;99.90
6260;DHT22;3163;51.516;4.000;2023-02-21T17:59:42;10.00;99.90
6260;DHT22;3163;51.516;4.000;2023-02-21T18:02:10;9.60;99.90
6260;DHT22;3163;51.516;4.000;2023-02-21T18:04:37;9.20;99.90
6260;DHT22;3163;51.516;4.000;2023-02-21T18:07:03;9.50;99.90
6260;DHT22;3163;51.516;4.000;2023-02-21T18:09:29;9.30;99.90
6260;DHT22;3163;51.516;4.000;2023-02-21T18:11:55;9.20;99.90
6260;DHT22;3163;51.516;4.000;2023-02-21T18:14:23;8.80;99.90
6260;DHT22;3163;51.516;4.000;2023-02-21T18:16:50;9.20;99.90
6260;DHT22;3163;51.516;4.000;2023-02-21T18:19:16;9.10;99.90
6260;DHT22;3163;51.516;4.000;2023-02-21T18:21:44;9.60;99.90
6260;DHT22;3163;51.516;4.000;2023-02-21T18:24:11;9.70;99.90
6260;DHT22;3163;51.516;4.000;2023-02-21T18:26:38;9.70;99.90
6260;DHT22;3163;51.516;4.000;2023-02-21T18:29:04;9.60;99.90
6260;DHT22;3163;51.516;4.000;2023-02-21T18:31:30;9.70;99.90
6260;DHT22;3163;51.516;4.000;2023-02-21T18:33:56;9.80;99.90
6260;DHT22;3163;51.516;4.000;2023-02-21T18:36:22;9.70;99.90
6260;DHT22;3163;51.516;4.000;2023-02-21T18:38:47;9.30;99.90
6260;DHT22;3163;51.516;4.000;2023-02-21T18:41:16;8.90;99.90
6260;DHT22;3163;51.516;4.000;2023-02-21T18:43:42;9.20;99.90
6260;DHT22;3163;51.516;4.000;2023-02-21T18:46:16;9.50;99.90
6260;DHT22;3163;51.516;4.000;2023-02-21T18:48:46;9.50;99.90
6260;DHT22;3163;51.516;4.000;2023-02-21T18:51:13;9.60;99.90
6260;DHT22;3163;51.516;4.000;2023-02-21T18:53:42;9.90;99.90
6260;DHT22;3163;51.516;4.000;2023-02-21T18:56:10;9.90;99.90
6260;DHT22;3163;51.516;4.000;2023-02-21T18:58:36;9.70;99.90
6260;DHT22;3163;51.516;4.000;2023-02-21T19:01:03;9.70;99.90
6260;DHT22;3163;51.516;4.000;2023-02-21T19:03:29;9.50;99.90
6260;DHT22;3163;51.516;4.000;2023-02-21T19:05:55;9.20;99.90
6260;DHT22;3163;51.516;4.000;2023-02-21T19:08:20;9.30;99.90
6260;DHT22;3163;51.516;4.000;2023-02-21T19:10:47;9.50;99.90
6260;DHT22;3163;51.516;4.000;2023-02-21T19:13:14;9.80;99.90
6260;DHT22;3163;51.516;4.000;2023-02-21T19:15:41;9.60;99.90
6260;DHT22;3163;51.516;4.000;2023-02-21T19:18:07;9.20;99.90
6260;DHT22;3163;51.516;4.000;2023-02-21T19:20:32;9.60;99.90
6260;DHT22;3163;51.516;4.000;2023-02-21T19:22:58;9.30;99.90
6260;DHT22;3163;51.516;4.000;2023-02-21T19:25:24;9.00;99.90
6260;DHT22;3163;51.516;4.000;2023-02-21T19:27:53;9.10;99.90